sensor_id;sensor_type;location;lat;lon;timestamp;P1;durP1;ratioP1;P2;durP2;ratioP2
13849;SDS011;6995;52.618;13.488;2023-06-26T00:01:50;38.75;;;36.38;;
13849;SDS011;6995;52.618;13.488;2023-06-26T00:04:16;42.28;;;39.65;;
13849;SDS011;6995;52.618;13.488;2023-06-26T00:06:41;40.42;;;37.83;;
13849;SDS011;6995;52.618;13.488;2023-06-26T00:09:07;39.42;;;37.13;;
13849;SDS011;6995;52.618;13.488;2023-06-26T00:11:33;41.55;;;39.25;;
13849;SDS011;6995;52.618;13.488;2023-06-26T00:13:59;40.75;;;38.42;;
13849;SDS011;6995;52.618;13.488;2023-06-26T00:16:25;41.08;;;38.58;;
13849;SDS011;6995;52.618;13.488;2023-06-26T00:18:52;39.78;;;37.45;;
13849;SDS011;6995;52.618;13.488;2023-06-26T00:21:18;39.72;;;37.30;;
13849;SDS011;6995;52.618;13.488;2023-06-26T00:23:44;40.42;;;38.13;;
13849;SDS011;6995;52.618;13.488;2023-06-26T00:26:10;41.95;;;39.15;;
13849;SDS011;6995;52.618;13.488;2023-06-26T00:28:36;41.42;;;38.83;;
13849;SDS011;6995;52.618;13.488;2023-06-26T00:31:02;40.67;;;38.38;;
13849;SDS011;6995;52.618;13.488;2023-06-26T00:33:28;41.88;;;39.47;;
13849;SDS011;6995;52.618;13.488;2023-06-26T00:35:53;42.97;;;40.05;;
13849;SDS011;6995;52.618;13.488;2023-06-26T00:38:19;40.03;;;37.58;;
13849;SDS011;6995;52.618;13.488;2023-06-26T00:40:44;40.75;;;38.33;;
13849;SDS011;6995;52.618;13.488;2023-06-26T00:43:10;40.00;;;37.40;;
13849;SDS011;6995;52.618;13.488;2023-06-26T00:45:35;38.20;;;35.90;;
13849;SDS011;6995;52.618;13.488;2023-06-26T00:48:01;39.38;;;36.97;;
13849;SDS011;6995;52.618;13.488;2023-06-26T00:50:27;36.80;;;34.45;;
13849;SDS011;6995;52.618;13.488;2023-06-26T00:52:53;38.78;;;36.50;;
13849;SDS011;6995;52.618;13.488;2023-06-26T00:55:25;37.72;;;35.50;;
13849;SDS011;6995;52.618;13.488;2023-06-26T00:57:54;41.65;;;38.75;;
13849;SDS011;6995;52.618;13.488;2023-06-26T01:00:20;43.00;;;40.40;;
13849;SDS011;6995;52.618;13.488;2023-06-26T01:02:46;42.60;;;40.08;;
13849;SDS011;6995;52.618;13.488;2023-06-26T01:05:11;40.50;;;38.22;;
13849;SDS011;6995;52.618;13.488;2023-06-26T01:07:46;41.50;;;39.00;;
13849;SDS011;6995;52.618;13.488;2023-06-26T01:10:13;43.35;;;40.83;;
13849;SDS011;6995;52.618;13.488;2023-06-26T01:12:38;42.83;;;40.30;;
13849;SDS011;6995;52.618;13.488;2023-06-26T01:15:04;43.72;;;41.13;;
13849;SDS011;6995;52.618;13.488;2023-06-26T01:17:30;46.58;;;43.75;;
13849;SDS011;6995;52.618;13.488;2023-06-26T01:19:58;43.55;;;41.05;;
13849;SDS011;6995;52.618;13.488;2023-06-26T01:27:44;43.75;;;41.30;;
13849;SDS011;6995;52.618;13.488;2023-06-26T01:30:12;42.20;;;39.45;;
13849;SDS011;6995;52.618;13.488;2023-06-26T01:32:39;42.78;;;40.03;;
13849;SDS011;6995;52.618;13.488;2023-06-26T01:35:05;41.97;;;39.38;;
13849;SDS011;6995;52.618;13.488;2023-06-26T01:37:33;42.03;;;39.47;;
13849;SDS011;6995;52.618;13.488;2023-06-26T01:39:59;44.17;;;41.47;;
13849;SDS011;6995;52.618;13.488;2023-06-26T01:42:24;45.55;;;42.85;;
13849;SDS011;6995;52.618;13.488;2023-06-26T01:44:50;45.80;;;43.10;;
13849;SDS011;6995;52.618;13.488;2023-06-26T01:47:19;40.15;;;37.40;;
13849;SDS011;6995;52.618;13.488;2023-06-26T01:49:58;39.70;;;37.30;;
13849;SDS011;6995;52.618;13.488;2023-06-26T01:58:01;39.55;;;37.15;;
13849;SDS011;6995;52.618;13.488;2023-06-26T02:00:27;40.55;;;37.45;;
13849;SDS011;6995;52.618;13.488;2023-06-26T02:02:53;38.80;;;35.97;;
13849;SDS011;6995;52.618;13.488;2023-06-26T02:05:19;40.20;;;37.50;;
13849;SDS011;6995;52.618;13.488;2023-06-26T02:07:45;39.30;;;36.75;;
13849;SDS011;6995;52.618;13.488;2023-06-26T02:10:11;38.78;;;36.33;;
13849;SDS011;6995;52.618;13.488;2023-06-26T02:12:37;41.78;;;38.70;;
13849;SDS011;6995;52.618;13.488;2023-06-26T02:15:03;38.35;;;36.13;;
13849;SDS011;6995;52.618;13.488;2023-06-26T02:17:29;38.20;;;35.70;;
13849;SDS011;6995;52.618;13.488;2023-06-26T02:19:55;38.22;;;35.70;;
13849;SDS011;6995;52.618;13.488;2023-06-26T02:22:21;39.90;;;37.60;;
13849;SDS011;6995;52.618;13.488;2023-06-26T02:24:46;37.95;;;35.55;;
13849;SDS011;6995;52.618;13.488;2023-06-26T02:27:12;40.63;;;37.92;;
13849;SDS011;6995;52.618;13.488;2023-06-26T02:29:38;39.45;;;36.75;;
13849;SDS011;6995;52.618;13.488;2023-06-26T02:32:05;39.20;;;36.50;;
13849;SDS011;6995;52.618;13.488;2023-06-26T02:34:31;38.63;;;36.03;;
13849;SDS011;6995;52.618;13.488;2023-06-26T02:36:59;39.53;;;37.03;;
13849;SDS011;6995;52.618;13.488;2023-06-26T02:39:25;42.15;;;39.65;;
13849;SDS011;6995;52.618;13.488;2023-06-26T02:41:51;43.05;;;40.28;;
13849;SDS011;6995;52.618;13.488;2023-06-26T02:44:17;42.03;;;38.90;;
13849;SDS011;6995;52.618;13.488;2023-06-26T02:46:43;39.88;;;37.38;;
13849;SDS011;6995;52.618;13.488;2023-06-26T02:49:09;45.42;;;42.35;;
13849;SDS011;6995;52.618;13.488;2023-06-26T02:51:35;43.47;;;40.53;;
13849;SDS011;6995;52.618;13.488;2023-06-26T02:54:00;43.15;;;40.25;;
13849;SDS011;6995;52.618;13.488;2023-06-26T02:56:26;43.50;;;40.70;;
13849;SDS011;6995;52.618;13.488;2023-06-26T02:58:58;42.08;;;39.35;;
13849;SDS011;6995;52.618;13.488;2023-06-26T03:01:24;42.38;;;39.47;;
13849;SDS011;6995;52.618;13.488;2023-06-26T03:03:49;43.33;;;40.30;;
13849;SDS011;6995;52.618;13.488;2023-06-26T03:06:15;41.97;;;39.17;;
13849;SDS011;6995;52.618;13.488;2023-06-26T03:08:41;41.80;;;38.63;;
13849;SDS011;6995;52.618;13.488;2023-06-26T03:11:07;41.20;;;38.38;;
13849;SDS011;6995;52.618;13.488;2023-06-26T03:13:34;38.42;;;35.90;;
13849;SDS011;6995;52.618;13.488;2023-06-26T03:16:01;39.38;;;36.42;;
13849;SDS011;6995;52.618;13.488;2023-06-26T03:18:27;38.13;;;35.13;;
13849;SDS011;6995;52.618;13.488;2023-06-26T03:20:53;39.30;;;36.42;;
13849;SDS011;6995;52.618;13.488;2023-06-26T03:23:20;37.65;;;34.95;;
13849;SDS011;6995;52.618;13.488;2023-06-26T03:25:46;40.25;;;37.42;;
13849;SDS011;6995;52.618;13.488;2023-06-26T03:28:12;37.95;;;35.28;;
13849;SDS011;6995;52.618;13.488;2023-06-26T03:30:38;35.72;;;33.20;;
13849;SDS011;6995;52.618;13.488;2023-06-26T03:33:03;37.75;;;34.92;;
13849;SDS011;6995;52.618;13.488;2023-06-26T03:35:29;40.60;;;37.90;;
13849;SDS011;6995;52.618;13.488;2023-06-26T03:37:54;37.40;;;34.78;;
13849;SDS011;6995;52.618;13.488;2023-06-26T03:40:20;38.53;;;35.60;;
13849;SDS011;6995;52.618;13.488;2023-06-26T03:42:46;38.85;;;35.53;;
13849;SDS011;6995;52.618;13.488;2023-06-26T03:45:11;37.00;;;34.53;;
13849;SDS011;6995;52.618;13.488;2023-06-26T03:47:37;39.58;;;36.55;;
13849;SDS011;6995;52.618;13.488;2023-06-26T03:50:02;37.38;;;34.75;;
13849;SDS011;6995;52.618;13.488;2023-06-26T03:52:29;37.75;;;35.08;;
13849;SDS011;6995;52.618;13.488;2023-06-26T03:54:56;39.17;;;36.17;;
13849;SDS011;6995;52.618;13.488;2023-06-26T03:57:23;37.72;;;34.85;;
13849;SDS011;6995;52.618;13.488;2023-06-26T03:59:48;37.72;;;34.95;;
13849;SDS011;6995;52.618;13.488;2023-06-26T04:02:15;39.60;;;36.45;;
13849;SDS011;6995;52.618;13.488;2023-06-26T04:04:40;39.08;;;36.28;;
13849;SDS011;6995;52.618;13.488;2023-06-26T04:07:06;38.47;;;35.67;;
13849;SDS011;6995;52.618;13.488;2023-06-26T04:09:31;40.03;;;37.00;;
13849;SDS011;6995;52.618;13.488;2023-06-26T04:11:57;40.13;;;37.20;;
13849;SDS011;6995;52.618;13.488;2023-06-26T04:14:23;39.67;;;36.67;;
13849;SDS011;6995;52.618;13.488;2023-06-26T04:16:48;40.95;;;38.03;;
13849;SDS011;6995;52.618;13.488;2023-06-26T04:19:14;38.42;;;35.83;;
13849;SDS011;6995;52.618;13.488;2023-06-26T04:21:40;41.70;;;39.08;;
13849;SDS011;6995;52.618;13.488;2023-06-26T04:24:06;45.30;;;42.30;;
13849;SDS011;6995;52.618;13.488;2023-06-26T04:26:31;47.22;;;43.78;;
13849;SDS011;6995;52.618;13.488;2023-06-26T04:28:57;49.08;;;46.05;;
13849;SDS011;6995;52.618;13.488;2023-06-26T04:31:23;47.83;;;44.83;;
13849;SDS011;6995;52.618;13.488;2023-06-26T04:33:48;44.60;;;41.70;;
13849;SDS011;6995;52.618;13.488;2023-06-26T04:36:15;46.17;;;43.08;;
13849;SDS011;6995;52.618;13.488;2023-06-26T04:38:45;46.80;;;43.80;;
13849;SDS011;6995;52.618;13.488;2023-06-26T04:41:10;45.45;;;42.30;;
13849;SDS011;6995;52.618;13.488;2023-06-26T04:43:36;43.05;;;39.95;;
13849;SDS011;6995;52.618;13.488;2023-06-26T04:46:02;41.10;;;38.50;;
13849;SDS011;6995;52.618;13.488;2023-06-26T04:48:28;44.63;;;41.63;;
13849;SDS011;6995;52.618;13.488;2023-06-26T04:50:56;44.28;;;41.38;;
13849;SDS011;6995;52.618;13.488;2023-06-26T04:53:22;44.90;;;41.88;;
13849;SDS011;6995;52.618;13.488;2023-06-26T04:55:49;42.28;;;39.45;;
13849;SDS011;6995;52.618;13.488;2023-06-26T04:58:15;56.65;;;53.22;;
13849;SDS011;6995;52.618;13.488;2023-06-26T05:00:41;42.75;;;39.45;;
13849;SDS011;6995;52.618;13.488;2023-06-26T05:03:11;38.83;;;36.17;;
13849;SDS011;6995;52.618;13.488;2023-06-26T05:05:37;40.60;;;37.88;;
13849;SDS011;6995;52.618;13.488;2023-06-26T05:08:16;39.13;;;36.40;;
13849;SDS011;6995;52.618;13.488;2023-06-26T05:10:42;35.58;;;33.17;;
13849;SDS011;6995;52.618;13.488;2023-06-26T05:13:08;34.97;;;32.50;;
13849;SDS011;6995;52.618;13.488;2023-06-26T05:15:34;38.20;;;35.53;;
13849;SDS011;6995;52.618;13.488;2023-06-26T05:18:00;35.55;;;32.45;;
13849;SDS011;6995;52.618;13.488;2023-06-26T05:20:25;37.33;;;34.53;;
13849;SDS011;6995;52.618;13.488;2023-06-26T05:22:51;36.85;;;33.85;;
13849;SDS011;6995;52.618;13.488;2023-06-26T05:25:18;34.55;;;32.00;;
13849;SDS011;6995;52.618;13.488;2023-06-26T05:27:46;33.95;;;31.05;;
13849;SDS011;6995;52.618;13.488;2023-06-26T05:30:13;34.42;;;31.92;;
13849;SDS011;6995;52.618;13.488;2023-06-26T05:32:38;33.33;;;30.80;;
13849;SDS011;6995;52.618;13.488;2023-06-26T05:35:05;32.90;;;30.52;;
13849;SDS011;6995;52.618;13.488;2023-06-26T05:37:32;35.00;;;32.70;;
13849;SDS011;6995;52.618;13.488;2023-06-26T05:39:59;34.80;;;32.25;;
13849;SDS011;6995;52.618;13.488;2023-06-26T05:42:26;34.22;;;31.73;;
13849;SDS011;6995;52.618;13.488;2023-06-26T05:44:53;37.80;;;35.00;;
13849;SDS011;6995;52.618;13.488;2023-06-26T05:47:18;37.45;;;34.83;;
13849;SDS011;6995;52.618;13.488;2023-06-26T05:49:44;42.03;;;39.20;;
13849;SDS011;6995;52.618;13.488;2023-06-26T05:52:10;43.92;;;40.78;;
13849;SDS011;6995;52.618;13.488;2023-06-26T05:54:36;35.92;;;33.33;;
13849;SDS011;6995;52.618;13.488;2023-06-26T05:57:02;35.95;;;33.28;;
13849;SDS011;6995;52.618;13.488;2023-06-26T05:59:30;37.97;;;35.15;;
13849;SDS011;6995;52.618;13.488;2023-06-26T06:01:57;39.30;;;36.35;;
13849;SDS011;6995;52.618;13.488;2023-06-26T06:04:22;35.85;;;33.30;;
13849;SDS011;6995;52.618;13.488;2023-06-26T06:06:48;32.35;;;30.20;;
13849;SDS011;6995;52.618;13.488;2023-06-26T06:09:13;35.22;;;32.17;;
13849;SDS011;6995;52.618;13.488;2023-06-26T06:11:39;32.45;;;30.00;;
13849;SDS011;6995;52.618;13.488;2023-06-26T06:14:05;31.88;;;29.73;;
13849;SDS011;6995;52.618;13.488;2023-06-26T06:16:30;34.20;;;31.70;;
13849;SDS011;6995;52.618;13.488;2023-06-26T06:18:56;30.60;;;28.58;;
13849;SDS011;6995;52.618;13.488;2023-06-26T06:21:22;35.30;;;32.60;;
13849;SDS011;6995;52.618;13.488;2023-06-26T06:23:47;35.88;;;33.33;;
13849;SDS011;6995;52.618;13.488;2023-06-26T06:26:13;34.08;;;31.63;;
13849;SDS011;6995;52.618;13.488;2023-06-26T06:28:39;32.38;;;30.13;;
13849;SDS011;6995;52.618;13.488;2023-06-26T06:31:05;58.15;;;54.70;;
13849;SDS011;6995;52.618;13.488;2023-06-26T06:33:30;32.97;;;30.73;;
13849;SDS011;6995;52.618;13.488;2023-06-26T06:35:56;30.35;;;28.35;;
13849;SDS011;6995;52.618;13.488;2023-06-26T06:38:22;28.30;;;26.20;;
13849;SDS011;6995;52.618;13.488;2023-06-26T06:40:48;28.23;;;26.02;;
13849;SDS011;6995;52.618;13.488;2023-06-26T06:43:13;30.48;;;27.83;;
13849;SDS011;6995;52.618;13.488;2023-06-26T06:45:39;28.73;;;26.63;;
13849;SDS011;6995;52.618;13.488;2023-06-26T06:48:05;30.38;;;28.45;;
13849;SDS011;6995;52.618;13.488;2023-06-26T06:50:30;28.75;;;26.75;;
13849;SDS011;6995;52.618;13.488;2023-06-26T06:52:56;34.45;;;32.33;;
13849;SDS011;6995;52.618;13.488;2023-06-26T06:55:22;35.15;;;33.15;;
13849;SDS011;6995;52.618;13.488;2023-06-26T06:57:48;34.63;;;32.53;;
13849;SDS011;6995;52.618;13.488;2023-06-26T07:00:15;34.15;;;32.08;;
13849;SDS011;6995;52.618;13.488;2023-06-26T07:02:44;33.47;;;31.48;;
13849;SDS011;6995;52.618;13.488;2023-06-26T07:05:11;27.90;;;25.80;;
13849;SDS011;6995;52.618;13.488;2023-06-26T07:07:37;25.60;;;23.63;;
13849;SDS011;6995;52.618;13.488;2023-06-26T07:10:06;26.98;;;24.85;;
13849;SDS011;6995;52.618;13.488;2023-06-26T07:12:38;24.23;;;22.63;;
13849;SDS011;6995;52.618;13.488;2023-06-26T07:15:04;26.73;;;24.88;;
13849;SDS011;6995;52.618;13.488;2023-06-26T07:17:31;27.25;;;25.38;;
13849;SDS011;6995;52.618;13.488;2023-06-26T07:19:57;26.30;;;24.25;;
13849;SDS011;6995;52.618;13.488;2023-06-26T07:22:23;28.15;;;26.38;;
13849;SDS011;6995;52.618;13.488;2023-06-26T07:24:48;24.67;;;23.05;;
13849;SDS011;6995;52.618;13.488;2023-06-26T07:27:17;25.95;;;24.13;;
13849;SDS011;6995;52.618;13.488;2023-06-26T07:29:44;25.45;;;23.90;;
13849;SDS011;6995;52.618;13.488;2023-06-26T07:32:09;24.30;;;22.60;;
13849;SDS011;6995;52.618;13.488;2023-06-26T07:34:35;25.15;;;23.23;;
13849;SDS011;6995;52.618;13.488;2023-06-26T07:37:01;26.25;;;24.55;;
13849;SDS011;6995;52.618;13.488;2023-06-26T07:39:27;27.65;;;25.42;;
13849;SDS011;6995;52.618;13.488;2023-06-26T07:41:52;25.83;;;24.02;;
13849;SDS011;6995;52.618;13.488;2023-06-26T07:44:18;27.40;;;25.70;;
13849;SDS011;6995;52.618;13.488;2023-06-26T07:46:44;25.88;;;24.27;;
13849;SDS011;6995;52.618;13.488;2023-06-26T07:49:10;26.02;;;24.25;;
13849;SDS011;6995;52.618;13.488;2023-06-26T07:51:36;24.83;;;23.30;;
13849;SDS011;6995;52.618;13.488;2023-06-26T07:54:02;24.23;;;22.83;;
13849;SDS011;6995;52.618;13.488;2023-06-26T07:56:27;24.58;;;22.95;;
13849;SDS011;6995;52.618;13.488;2023-06-26T07:58:53;24.52;;;22.75;;
13849;SDS011;6995;52.618;13.488;2023-06-26T08:01:19;26.75;;;24.83;;
13849;SDS011;6995;52.618;13.488;2023-06-26T08:03:44;24.85;;;23.35;;
13849;SDS011;6995;52.618;13.488;2023-06-26T08:06:10;25.80;;;24.10;;
13849;SDS011;6995;52.618;13.488;2023-06-26T08:08:35;23.80;;;22.40;;
13849;SDS011;6995;52.618;13.488;2023-06-26T08:11:01;23.40;;;21.85;;
13849;SDS011;6995;52.618;13.488;2023-06-26T08:13:27;23.55;;;21.92;;
13849;SDS011;6995;52.618;13.488;2023-06-26T08:15:53;23.08;;;21.45;;
13849;SDS011;6995;52.618;13.488;2023-06-26T08:18:18;23.65;;;21.92;;
13849;SDS011;6995;52.618;13.488;2023-06-26T08:20:44;23.45;;;21.95;;
13849;SDS011;6995;52.618;13.488;2023-06-26T08:23:09;23.60;;;21.95;;
13849;SDS011;6995;52.618;13.488;2023-06-26T08:25:35;23.75;;;22.13;;
13849;SDS011;6995;52.618;13.488;2023-06-26T08:28:01;22.17;;;20.67;;
13849;SDS011;6995;52.618;13.488;2023-06-26T08:30:26;24.00;;;22.40;;
13849;SDS011;6995;52.618;13.488;2023-06-26T08:32:56;23.95;;;22.40;;
13849;SDS011;6995;52.618;13.488;2023-06-26T08:35:21;22.40;;;20.65;;
13849;SDS011;6995;52.618;13.488;2023-06-26T08:37:47;20.98;;;19.67;;
13849;SDS011;6995;52.618;13.488;2023-06-26T08:40:14;21.48;;;20.10;;
13849;SDS011;6995;52.618;13.488;2023-06-26T08:42:43;20.58;;;19.13;;
13849;SDS011;6995;52.618;13.488;2023-06-26T08:45:09;21.25;;;19.95;;
13849;SDS011;6995;52.618;13.488;2023-06-26T08:47:35;23.58;;;21.95;;
13849;SDS011;6995;52.618;13.488;2023-06-26T08:50:12;24.23;;;22.63;;
13849;SDS011;6995;52.618;13.488;2023-06-26T08:53:03;22.60;;;20.95;;
13849;SDS011;6995;52.618;13.488;2023-06-26T08:55:38;21.95;;;20.50;;
13849;SDS011;6995;52.618;13.488;2023-06-26T08:58:07;23.92;;;22.08;;
13849;SDS011;6995;52.618;13.488;2023-06-26T09:00:33;21.85;;;20.40;;
13849;SDS011;6995;52.618;13.488;2023-06-26T09:02:59;21.83;;;20.38;;
13849;SDS011;6995;52.618;13.488;2023-06-26T09:05:28;22.73;;;21.13;;
13849;SDS011;6995;52.618;13.488;2023-06-26T09:07:54;24.77;;;23.13;;
13849;SDS011;6995;52.618;13.488;2023-06-26T09:10:21;22.83;;;21.27;;
13849;SDS011;6995;52.618;13.488;2023-06-26T09:12:47;24.00;;;21.75;;
13849;SDS011;6995;52.618;13.488;2023-06-26T09:15:14;24.17;;;22.58;;
13849;SDS011;6995;52.618;13.488;2023-06-26T09:17:40;22.33;;;20.98;;
13849;SDS011;6995;52.618;13.488;2023-06-26T09:20:07;22.08;;;20.58;;
13849;SDS011;6995;52.618;13.488;2023-06-26T09:22:33;22.65;;;21.15;;
13849;SDS011;6995;52.618;13.488;2023-06-26T09:25:03;22.50;;;21.08;;
13849;SDS011;6995;52.618;13.488;2023-06-26T09:27:32;23.38;;;21.73;;
13849;SDS011;6995;52.618;13.488;2023-06-26T09:29:59;22.23;;;20.48;;
13849;SDS011;6995;52.618;13.488;2023-06-26T09:32:24;21.27;;;19.73;;
13849;SDS011;6995;52.618;13.488;2023-06-26T09:34:52;21.23;;;19.98;;
13849;SDS011;6995;52.618;13.488;2023-06-26T09:37:18;20.58;;;19.38;;
13849;SDS011;6995;52.618;13.488;2023-06-26T09:39:44;21.60;;;20.30;;
13849;SDS011;6995;52.618;13.488;2023-06-26T09:42:10;19.98;;;18.77;;
13849;SDS011;6995;52.618;13.488;2023-06-26T09:44:43;23.95;;;22.65;;
13849;SDS011;6995;52.618;13.488;2023-06-26T09:47:12;24.08;;;22.15;;
13849;SDS011;6995;52.618;13.488;2023-06-26T09:49:42;25.95;;;24.25;;
13849;SDS011;6995;52.618;13.488;2023-06-26T09:52:08;21.83;;;20.52;;
13849;SDS011;6995;52.618;13.488;2023-06-26T09:54:34;24.90;;;23.23;;
13849;SDS011;6995;52.618;13.488;2023-06-26T09:57:11;22.67;;;20.73;;
13849;SDS011;6995;52.618;13.488;2023-06-26T09:59:38;26.67;;;25.27;;
13849;SDS011;6995;52.618;13.488;2023-06-26T10:02:05;23.15;;;21.67;;
13849;SDS011;6995;52.618;13.488;2023-06-26T10:04:31;21.88;;;20.67;;
13849;SDS011;6995;52.618;13.488;2023-06-26T10:06:58;32.70;;;30.85;;
13849;SDS011;6995;52.618;13.488;2023-06-26T10:09:26;36.47;;;34.47;;
13849;SDS011;6995;52.618;13.488;2023-06-26T10:11:54;34.67;;;32.65;;
13849;SDS011;6995;52.618;13.488;2023-06-26T10:14:24;43.20;;;41.00;;
13849;SDS011;6995;52.618;13.488;2023-06-26T10:16:52;44.42;;;41.67;;
13849;SDS011;6995;52.618;13.488;2023-06-26T10:19:23;39.92;;;37.88;;
13849;SDS011;6995;52.618;13.488;2023-06-26T10:21:52;44.53;;;42.28;;
13849;SDS011;6995;52.618;13.488;2023-06-26T10:24:19;47.72;;;45.42;;
13849;SDS011;6995;52.618;13.488;2023-06-26T10:26:45;38.05;;;36.15;;
13849;SDS011;6995;52.618;13.488;2023-06-26T10:29:15;38.50;;;36.50;;
13849;SDS011;6995;52.618;13.488;2023-06-26T10:31:48;48.35;;;46.00;;
13849;SDS011;6995;52.618;13.488;2023-06-26T10:34:17;42.20;;;39.67;;
13849;SDS011;6995;52.618;13.488;2023-06-26T10:36:43;32.28;;;30.33;;
13849;SDS011;6995;52.618;13.488;2023-06-26T10:39:09;24.08;;;22.58;;
13849;SDS011;6995;52.618;13.488;2023-06-26T10:41:38;34.28;;;32.08;;
13849;SDS011;6995;52.618;13.488;2023-06-26T10:44:09;22.63;;;21.33;;
13849;SDS011;6995;52.618;13.488;2023-06-26T10:46:52;34.25;;;32.33;;
13849;SDS011;6995;52.618;13.488;2023-06-26T10:49:28;20.90;;;19.50;;
13849;SDS011;6995;52.618;13.488;2023-06-26T10:52:00;23.58;;;22.27;;
13849;SDS011;6995;52.618;13.488;2023-06-26T10:54:30;23.95;;;22.70;;
13849;SDS011;6995;52.618;13.488;2023-06-26T10:56:57;23.77;;;22.40;;
13849;SDS011;6995;52.618;13.488;2023-06-26T10:59:26;22.42;;;21.10;;
13849;SDS011;6995;52.618;13.488;2023-06-26T11:04:36;23.58;;;21.90;;
13849;SDS011;6995;52.618;13.488;2023-06-26T11:07:21;25.15;;;23.65;;
13849;SDS011;6995;52.618;13.488;2023-06-26T11:12:39;27.15;;;25.67;;
13849;SDS011;6995;52.618;13.488;2023-06-26T11:17:36;28.23;;;26.77;;
13849;SDS011;6995;52.618;13.488;2023-06-26T11:20:02;23.80;;;22.38;;
13849;SDS011;6995;52.618;13.488;2023-06-26T11:22:30;24.60;;;23.20;;
13849;SDS011;6995;52.618;13.488;2023-06-26T11:25:00;25.83;;;23.63;;
13849;SDS011;6995;52.618;13.488;2023-06-26T11:30:12;23.08;;;21.67;;
13849;SDS011;6995;52.618;13.488;2023-06-26T11:32:48;23.52;;;21.63;;
13849;SDS011;6995;52.618;13.488;2023-06-26T11:35:22;20.27;;;19.17;;
13849;SDS011;6995;52.618;13.488;2023-06-26T11:37:55;22.15;;;20.92;;
13849;SDS011;6995;52.618;13.488;2023-06-26T11:40:25;23.02;;;21.73;;
13849;SDS011;6995;52.618;13.488;2023-06-26T11:42:52;25.52;;;24.02;;
13849;SDS011;6995;52.618;13.488;2023-06-26T11:45:19;26.50;;;24.40;;
13849;SDS011;6995;52.618;13.488;2023-06-26T11:47:45;23.65;;;22.00;;
13849;SDS011;6995;52.618;13.488;2023-06-26T11:50:17;24.85;;;22.80;;
13849;SDS011;6995;52.618;13.488;2023-06-26T11:52:43;22.02;;;20.77;;
13849;SDS011;6995;52.618;13.488;2023-06-26T11:55:09;21.77;;;20.33;;
13849;SDS011;6995;52.618;13.488;2023-06-26T11:57:35;25.17;;;23.67;;
13849;SDS011;6995;52.618;13.488;2023-06-26T12:00:12;29.10;;;27.48;;
13849;SDS011;6995;52.618;13.488;2023-06-26T12:02:38;29.95;;;28.08;;
13849;SDS011;6995;52.618;13.488;2023-06-26T12:05:04;36.80;;;34.13;;
13849;SDS011;6995;52.618;13.488;2023-06-26T12:07:31;28.10;;;26.50;;
13849;SDS011;6995;52.618;13.488;2023-06-26T12:09:57;33.85;;;31.55;;
13849;SDS011;6995;52.618;13.488;2023-06-26T12:12:23;35.80;;;33.95;;
13849;SDS011;6995;52.618;13.488;2023-06-26T12:14:51;34.38;;;32.10;;
13849;SDS011;6995;52.618;13.488;2023-06-26T12:17:17;30.73;;;27.88;;
13849;SDS011;6995;52.618;13.488;2023-06-26T12:19:47;28.92;;;26.80;;
13849;SDS011;6995;52.618;13.488;2023-06-26T12:22:17;21.27;;;20.08;;
13849;SDS011;6995;52.618;13.488;2023-06-26T12:24:44;25.73;;;24.33;;
13849;SDS011;6995;52.618;13.488;2023-06-26T12:27:14;22.20;;;20.90;;
13849;SDS011;6995;52.618;13.488;2023-06-26T12:29:46;21.08;;;19.77;;
13849;SDS011;6995;52.618;13.488;2023-06-26T12:32:24;28.02;;;26.63;;
13849;SDS011;6995;52.618;13.488;2023-06-26T12:34:50;19.80;;;18.60;;
13849;SDS011;6995;52.618;13.488;2023-06-26T12:37:16;23.58;;;22.17;;
13849;SDS011;6995;52.618;13.488;2023-06-26T12:39:52;20.50;;;19.30;;
13849;SDS011;6995;52.618;13.488;2023-06-26T12:42:28;20.67;;;19.55;;
13849;SDS011;6995;52.618;13.488;2023-06-26T12:44:58;17.45;;;16.33;;
13849;SDS011;6995;52.618;13.488;2023-06-26T12:47:27;20.05;;;18.95;;
13849;SDS011;6995;52.618;13.488;2023-06-26T12:49:55;18.90;;;17.60;;
13849;SDS011;6995;52.618;13.488;2023-06-26T12:52:22;26.83;;;25.38;;
13849;SDS011;6995;52.618;13.488;2023-06-26T12:54:51;34.17;;;31.17;;
13849;SDS011;6995;52.618;13.488;2023-06-26T12:57:18;32.88;;;31.27;;
13849;SDS011;6995;52.618;13.488;2023-06-26T12:59:44;18.05;;;17.13;;
13849;SDS011;6995;52.618;13.488;2023-06-26T13:02:10;25.33;;;23.63;;
13849;SDS011;6995;52.618;13.488;2023-06-26T13:04:38;22.63;;;20.73;;
13849;SDS011;6995;52.618;13.488;2023-06-26T13:07:08;23.00;;;21.77;;
13849;SDS011;6995;52.618;13.488;2023-06-26T13:09:34;18.98;;;17.88;;
13849;SDS011;6995;52.618;13.488;2023-06-26T13:12:00;17.45;;;16.45;;
13849;SDS011;6995;52.618;13.488;2023-06-26T13:14:28;29.00;;;27.33;;
13849;SDS011;6995;52.618;13.488;2023-06-26T13:16:56;34.20;;;32.28;;
13849;SDS011;6995;52.618;13.488;2023-06-26T13:19:22;22.58;;;21.08;;
13849;SDS011;6995;52.618;13.488;2023-06-26T13:21:48;21.15;;;19.85;;
13849;SDS011;6995;52.618;13.488;2023-06-26T13:24:13;22.33;;;20.52;;
13849;SDS011;6995;52.618;13.488;2023-06-26T13:26:40;20.73;;;19.13;;
13849;SDS011;6995;52.618;13.488;2023-06-26T13:29:05;18.95;;;17.75;;
13849;SDS011;6995;52.618;13.488;2023-06-26T13:31:31;21.35;;;19.92;;
13849;SDS011;6995;52.618;13.488;2023-06-26T13:33:57;20.05;;;18.58;;
13849;SDS011;6995;52.618;13.488;2023-06-26T13:36:23;22.20;;;20.35;;
13849;SDS011;6995;52.618;13.488;2023-06-26T13:38:49;24.98;;;23.48;;
13849;SDS011;6995;52.618;13.488;2023-06-26T13:41:20;32.88;;;31.20;;
13849;SDS011;6995;52.618;13.488;2023-06-26T13:43:47;33.45;;;31.58;;
13849;SDS011;6995;52.618;13.488;2023-06-26T13:46:13;29.40;;;27.50;;
13849;SDS011;6995;52.618;13.488;2023-06-26T13:48:38;26.92;;;25.08;;
13849;SDS011;6995;52.618;13.488;2023-06-26T13:51:04;22.70;;;21.10;;
13849;SDS011;6995;52.618;13.488;2023-06-26T13:53:29;21.17;;;19.73;;
13849;SDS011;6995;52.618;13.488;2023-06-26T13:55:55;21.08;;;19.63;;
13849;SDS011;6995;52.618;13.488;2023-06-26T13:58:20;23.05;;;21.65;;
13849;SDS011;6995;52.618;13.488;2023-06-26T14:00:47;21.83;;;20.42;;
13849;SDS011;6995;52.618;13.488;2023-06-26T14:03:13;21.83;;;20.15;;
13849;SDS011;6995;52.618;13.488;2023-06-26T14:05:39;22.02;;;20.63;;
13849;SDS011;6995;52.618;13.488;2023-06-26T14:08:07;60.95;;;24.73;;
13849;SDS011;6995;52.618;13.488;2023-06-26T14:10:33;24.73;;;22.67;;
13849;SDS011;6995;52.618;13.488;2023-06-26T14:12:59;26.60;;;24.70;;
13849;SDS011;6995;52.618;13.488;2023-06-26T14:15:25;28.48;;;26.70;;
13849;SDS011;6995;52.618;13.488;2023-06-26T14:17:51;32.88;;;30.65;;
13849;SDS011;6995;52.618;13.488;2023-06-26T14:20:17;29.38;;;27.52;;
13849;SDS011;6995;52.618;13.488;2023-06-26T14:22:45;31.27;;;28.73;;
13849;SDS011;6995;52.618;13.488;2023-06-26T14:25:11;27.55;;;25.75;;
13849;SDS011;6995;52.618;13.488;2023-06-26T14:27:38;30.80;;;28.25;;
13849;SDS011;6995;52.618;13.488;2023-06-26T14:30:04;31.40;;;28.58;;
13849;SDS011;6995;52.618;13.488;2023-06-26T14:32:31;42.47;;;38.75;;
13849;SDS011;6995;52.618;13.488;2023-06-26T14:34:56;36.90;;;33.60;;
13849;SDS011;6995;52.618;13.488;2023-06-26T14:37:23;30.95;;;28.55;;
13849;SDS011;6995;52.618;13.488;2023-06-26T14:39:50;45.25;;;42.00;;
13849;SDS011;6995;52.618;13.488;2023-06-26T14:42:16;33.78;;;31.38;;